Time;durP1;ratioP1;P1;durP2;ratioP2;P2;SDS_P1;SDS_P2;PMS_P1;PMS_P2;Temp;Humidity;BMP_temperature;BMP_pressure;BME280_temperature;BME280_humidity;BME280_pressure;Samples;Min_cycle;Max_cycle;Signal;HPM_P1;HPM_P2
2022/04/20 00:00:08;;;;;;;4.22;3.08;;;;;;;;;;10473190;28;20059;-76
2022/04/20 00:05:11;;;;;;;;;;;;;;;;;;10463429;28;20045;-74
2022/04/20 00:10:12;;;;;;;6.15;3.53;;;;;;;;;;10460727;28;19935;-74
2022/04/20 00:15:12;;;;;;;4.47;3.90;;;;;;;;;;10467729;28;20033;-74
2022/04/20 00:20:14;;;;;;;4.32;2.80;;;;;;;;;;10458969;28;20581;-75
2022/04/20 00:25:17;;;;;;;4.20;3.20;;;;;;;;;;10465834;28;20047;-74
2022/04/20 00:30:18;;;;;;;5.85;2.95;;;;;;;;;;10479913;28;20048;-75
2022/04/20 00:35:18;;;;;;;3.60;3.30;;;;;;;;;;10477896;28;20036;-76
2022/04/20 00:40:18;;;;;;;3.83;3.15;;;;;;;;;;10462667;28;20158;-76
2022/04/20 00:45:21;;;;;;;3.93;3.27;;;;;;;;;;10466102;28;20043;-76
2022/04/20 00:50:22;;;;;;;4.03;2.88;;;;;;;;;;10464560;28;20302;-76
2022/04/20 00:55:23;;;;;;;5.10;3.55;;;;;;;;;;10452828;28;20040;-76
2022/04/20 01:00:27;;;;;;;4.07;3.47;;;;;;;;;;10426219;28;20033;-76
2022/04/20 01:05:28;;;;;;;4.77;3.40;;;;;;;;;;10460408;28;20047;-75
2022/04/20 01:10:47;;;;;;;6.85;4.45;;;;;;;;;;10451697;28;20758;-76
2022/04/20 01:16:08;;;;;;;3.20;2.80;;;;;;;;;;10456503;28;20043;-75
2022/04/20 01:21:25;;;;;;;5.22;3.50;;;;;;;;;;10469300;28;20502;-75
2022/04/20 01:26:38;;;;;;;4.85;4.10;;;;;;;;;;10462240;28;20514;-74
2022/04/20 01:31:58;;;;;;;4.60;3.28;;;;;;;;;;10460541;28;20053;-74
2022/04/20 01:37:09;;;;;;;4.90;3.80;;;;;;;;;;10449212;28;20051;-76
2022/04/20 01:42:12;;;;;;;3.75;3.13;;;;;;;;;;10459179;28;20044;-75
2022/04/20 01:47:20;;;;;;;4.72;3.90;;;;;;;;;;10448660;28;20436;-76
2022/04/20 01:52:41;;;;;;;5.25;4.20;;;;;;;;;;10478427;28;20036;-75
2022/04/20 01:58:01;;;;;;;4.70;3.15;;;;;;;;;;10498349;28;20044;-75
2022/04/20 02:03:29;;;;;;;5.88;4.28;;;;;;;;;;10472693;28;20037;-74
2022/04/20 02:08:44;;;;;;;5.35;4.20;;;;;;;;;;10484115;28;20053;-75
2022/04/20 02:13:53;;;;;;;6.03;4.70;;;;;;;;;;10500607;28;20049;-75
2022/04/20 02:18:56;;;;;;;6.18;4.00;;;;;;;;;;10491146;28;20037;-75
2022/04/20 02:24:11;;;;;;;6.20;4.63;;;;;;;;;;10468410;28;20041;-75
2022/04/20 02:29:13;;;;;;;5.22;4.32;;;;;;;;;;10480194;28;20065;-75
2022/04/20 02:34:13;;;;;;;9.63;4.40;;;;;;;;;;10453702;28;20154;-76
2022/04/20 02:39:18;;;;;;;6.55;4.25;;;;;;;;;;10476843;28;20080;-76
2022/04/20 02:44:21;;;;;;;5.50;4.40;;;;;;;;;;10472928;28;20067;-76
2022/04/20 02:49:21;;;;;;;7.20;4.45;;;;;;;;;;10469515;28;20128;-75
2022/04/20 02:54:22;;;;;;;5.65;4.35;;;;;;;;;;10447325;28;20044;-74
2022/04/20 02:59:22;;;;;;;5.35;4.30;;;;;;;;;;10458237;28;20064;-73
2022/04/20 03:04:23;;;;;;;4.88;3.70;;;;;;;;;;10458395;28;20045;-73
2022/04/20 03:09:24;;;;;;;5.10;4.18;;;;;;;;;;10469781;28;20057;-75
2022/04/20 03:14:25;;;;;;;6.28;4.30;;;;;;;;;;10454053;28;20127;-75
2022/04/20 03:19:34;;;;;;;6.03;4.50;;;;;;;;;;10480260;28;20040;-76
2022/04/20 03:24:35;;;;;;;4.95;4.30;;;;;;;;;;10461906;28;20498;-75
2022/04/20 03:29:45;;;;;;;7.00;4.18;;;;;;;;;;10451958;28;20052;-75
2022/04/20 03:34:45;;;;;;;6.93;5.03;;;;;;;;;;10444250;28;20120;-74
2022/04/20 03:39:46;;;;;;;5.13;4.45;;;;;;;;;;10456454;28;20055;-75
2022/04/20 03:44:47;;;;;;;5.80;4.55;;;;;;;;;;10437901;28;20041;-74
2022/04/20 03:49:47;;;;;;;7.55;4.70;;;;;;;;;;10441024;28;20048;-73
2022/04/20 03:54:48;;;;;;;7.15;4.82;;;;;;;;;;10471403;28;20049;-74
2022/04/20 03:59:49;;;;;;;5.65;4.05;;;;;;;;;;10474147;28;20131;-73
2022/04/20 04:04:55;;;;;;;6.55;4.38;;;;;;;;;;10469971;28;20048;-75
2022/04/20 04:10:18;;;;;;;6.93;5.00;;;;;;;;;;10468906;28;20068;-75
2022/04/20 04:15:18;;;;;;;6.30;5.05;;;;;;;;;;10493093;28;20051;-73
2022/04/20 04:20:21;;;;;;;7.18;4.45;;;;;;;;;;10488652;28;20102;-75
2022/04/20 04:25:22;;;;;;;5.07;4.30;;;;;;;;;;10474638;28;20364;-75
2022/04/20 04:30:23;;;;;;;6.13;4.63;;;;;;;;;;10513042;28;20052;-75
2022/04/20 04:35:35;;;;;;;7.05;4.70;;;;;;;;;;10513635;28;20032;-75
2022/04/20 04:40:36;;;;;;;7.50;4.95;;;;;;;;;;10505081;28;20039;-75
2022/04/20 04:51:10;;;;;;;5.68;4.53;;;;;;;;;;10510660;28;20048;-75
2022/04/20 04:56:12;;;;;;;8.43;5.60;;;;;;;;;;10536095;28;20032;-73
2022/04/20 05:01:18;;;;;;;7.65;5.43;;;;;;;;;;10516294;28;20060;-76
2022/04/20 05:06:19;;;;;;;8.07;5.10;;;;;;;;;;10471732;28;20044;-74
2022/04/20 05:11:43;;;;;;;7.70;4.87;;;;;;;;;;10441299;28;20035;-76
2022/04/20 05:16:46;;;;;;;5.93;5.13;;;;;;;;;;10464470;28;20042;-75
2022/04/20 05:21:50;;;;;;;6.97;5.53;;;;;;;;;;10451378;28;20036;-75
2022/04/20 05:26:58;;;;;;;8.00;5.85;;;;;;;;;;10449817;28;20048;-74
2022/04/20 05:32:04;;;;;;;7.15;4.97;;;;;;;;;;10461581;28;20044;-74
2022/04/20 05:42:30;;;;;;;7.40;5.30;;;;;;;;;;10469637;28;20037;-73
2022/04/20 05:47:32;;;;;;;6.95;5.15;;;;;;;;;;10477808;28;20048;-75
2022/04/20 05:52:32;;;;;;;7.80;5.22;;;;;;;;;;10455033;28;20045;-74
2022/04/20 05:57:34;;;;;;;8.60;5.18;;;;;;;;;;10467692;28;20475;-75
2022/04/20 06:02:34;;;;;;;8.05;5.70;;;;;;;;;;10471072;28;20060;-78
2022/04/20 06:07:36;;;;;;;5.68;4.63;;;;;;;;;;10492456;28;20455;-76
2022/04/20 06:12:58;;;;;;;5.78;5.28;;;;;;;;;;10491834;28;20055;-78
2022/04/20 06:18:14;;;;;;;6.35;5.18;;;;;;;;;;10485821;28;20044;-76
2022/04/20 06:23:31;;;;;;;5.43;4.72;;;;;;;;;;10469765;28;20123;-76
2022/04/20 06:28:55;;;;;;;5.88;5.10;;;;;;;;;;10472295;28;20049;-75
2022/04/20 06:34:21;;;;;;;6.20;5.07;;;;;;;;;;10461894;28;20159;-77
2022/04/20 06:39:31;;;;;;;6.38;5.05;;;;;;;;;;10460799;28;20122;-76
2022/04/20 06:44:51;;;;;;;5.90;4.95;;;;;;;;;;10453134;28;20044;-74
2022/04/20 06:50:12;;;;;;;6.90;5.30;;;;;;;;;;10443902;28;20819;-77
2022/04/20 07:00:51;;;;;;;6.32;5.28;;;;;;;;;;10479380;28;20047;-76
2022/04/20 07:06:13;;;;;;;6.57;5.20;;;;;;;;;;10495315;28;20104;-75
2022/04/20 07:11:43;;;;;;;5.80;4.95;;;;;;;;;;10456283;28;20447;-75
2022/04/20 07:16:44;;;;;;;6.68;5.28;;;;;;;;;;10454704;28;20036;-75
2022/04/20 07:21:52;;;;;;;5.55;4.95;;;;;;;;;;10456821;28;20052;-75
2022/04/20 07:27:18;;;;;;;6.93;5.07;;;;;;;;;;10402230;28;20051;-75
2022/04/20 07:32:57;;;;;;;6.68;4.75;;;;;;;;;;10469626;28;20178;-75
2022/04/20 07:38:09;;;;;;;6.55;4.75;;;;;;;;;;10464769;28;20040;-77
2022/04/20 07:43:28;;;;;;;5.20;4.32;;;;;;;;;;10478965;28;20037;-76
2022/04/20 07:48:46;;;;;;;5.45;4.82;;;;;;;;;;10462673;28;20071;-77
2022/04/20 07:54:13;;;;;;;3.80;3.42;;;;;;;;;;10452614;28;20041;-75
2022/04/20 07:59:31;;;;;;;6.22;4.78;;;;;;;;;;10485657;28;20053;-75
2022/04/20 08:05:07;;;;;;;5.38;4.60;;;;;;;;;;10405987;28;20043;-77
2022/04/20 08:10:10;;;;;;;5.50;4.60;;;;;;;;;;10480358;28;20133;-70
2022/04/20 08:15:11;;;;;;;4.93;3.88;;;;;;;;;;10462513;28;20040;-71
2022/04/20 08:20:18;;;;;;;5.60;3.67;;;;;;;;;;10452495;28;20110;-71
2022/04/20 08:25:27;;;;;;;4.47;3.55;;;;;;;;;;10454465;28;20044;-72
2022/04/20 08:30:28;;;;;;;4.28;3.88;;;;;;;;;;10474739;28;20040;-69
2022/04/20 08:35:28;;;;;;;4.28;3.63;;;;;;;;;;10446067;28;20043;-69
2022/04/20 08:40:29;;;;;;;4.70;4.30;;;;;;;;;;10457701;28;20127;-71
2022/04/20 08:45:30;;;;;;;4.78;4.28;;;;;;;;;;10478599;28;20383;-70
2022/04/20 08:50:30;;;;;;;5.18;3.92;;;;;;;;;;10466663;28;20048;-69
2022/04/20 08:55:31;;;;;;;4.43;3.47;;;;;;;;;;10449792;28;20116;-71
2022/04/20 09:00:32;;;;;;;5.47;4.43;;;;;;;;;;10470670;28;20049;-69
2022/04/20 09:05:34;;;;;;;4.90;4.00;;;;;;;;;;10477107;28;20048;-70
2022/04/20 09:10:36;;;;;;;6.05;3.65;;;;;;;;;;10464182;28;20052;-70
2022/04/20 09:15:38;;;;;;;5.15;4.18;;;;;;;;;;10450762;28;20040;-71
2022/04/20 09:20:39;;;;;;;4.80;3.70;;;;;;;;;;10471880;28;20074;-72
2022/04/20 09:25:46;;;;;;;5.03;3.80;;;;;;;;;;10466958;28;20036;-70
2022/04/20 09:30:49;;;;;;;4.93;4.07;;;;;;;;;;10467250;28;20483;-70
2022/04/20 09:35:53;;;;;;;4.63;3.80;;;;;;;;;;10464265;28;20163;-69
2022/04/20 09:41:08;;;;;;;6.38;4.22;;;;;;;;;;10461385;28;20045;-70
2022/04/20 09:51:35;;;;;;;4.22;3.80;;;;;;;;;;10468919;28;20136;-75
2022/04/20 09:56:35;;;;;;;4.30;3.63;;;;;;;;;;10458239;28;20037;-70
2022/04/20 10:01:36;;;;;;;4.13;3.73;;;;;;;;;;10458160;28;20048;-73
2022/04/20 10:06:41;;;;;;;4.60;4.20;;;;;;;;;;10486820;28;20499;-76
2022/04/20 10:11:42;;;;;;;4.55;3.88;;;;;;;;;;10491285;28;20099;-77
2022/04/20 10:16:50;;;;;;;5.37;4.53;;;;;;;;;;10481017;28;20075;-78
2022/04/20 10:21:53;;;;;;;5.18;4.13;;;;;;;;;;10450966;28;20347;-74
2022/04/20 10:26:57;;;;;;;4.30;3.90;;;;;;;;;;10488460;28;20045;-76
2022/04/20 10:32:22;;;;;;;4.40;4.00;;;;;;;;;;10479165;28;20384;-76
2022/04/20 10:37:28;;;;;;;4.20;3.80;;;;;;;;;;10456603;28;20044;-77
2022/04/20 10:42:39;;;;;;;4.47;3.92;;;;;;;;;;10459909;28;20164;-76
2022/04/20 10:47:43;;;;;;;4.55;4.15;;;;;;;;;;10479952;28;20064;-75
2022/04/20 10:52:48;;;;;;;5.30;4.15;;;;;;;;;;10500088;28;20044;-76
2022/04/20 10:57:53;;;;;;;4.65;4.15;;;;;;;;;;10459376;28;20036;-75
2022/04/20 11:02:55;;;;;;;4.82;4.05;;;;;;;;;;10472732;28;20040;-74
2022/04/20 11:08:05;;;;;;;5.00;4.50;;;;;;;;;;10465775;28;20080;-79
2022/04/20 11:18:45;;;;;;;4.63;3.70;;;;;;;;;;10485299;28;20036;-76
2022/04/20 11:24:07;;;;;;;5.22;3.90;;;;;;;;;;10465016;28;20078;-76
2022/04/20 11:29:09;;;;;;;4.68;4.28;;;;;;;;;;10434615;28;20048;-75
2022/04/20 11:34:11;;;;;;;5.00;4.50;;;;;;;;;;10467461;28;20045;-76
2022/04/20 11:39:20;;;;;;;4.45;4.05;;;;;;;;;;10476410;28;20074;-76
2022/04/20 11:44:42;;;;;;;4.80;4.30;;;;;;;;;;10454926;28;20048;-70
2022/04/20 11:49:51;;;;;;;4.45;3.95;;;;;;;;;;10471433;28;20110;-70
2022/04/20 11:55:04;;;;;;;4.35;4.00;;;;;;;;;;10467919;28;20036;-73
2022/04/20 12:00:05;;;;;;;4.10;3.75;;;;;;;;;;10471330;28;20747;-70
2022/04/20 12:05:15;;;;;;;4.00;3.60;;;;;;;;;;10466591;28;20055;-71
2022/04/20 12:10:16;;;;;;;4.15;3.75;;;;;;;;;;10458441;28;20044;-72
2022/04/20 12:15:20;;;;;;;4.60;4.20;;;;;;;;;;10478511;28;20252;-71
2022/04/20 12:20:20;;;;;;;4.57;3.88;;;;;;;;;;10475177;28;20052;-74
2022/04/20 12:25:22;;;;;;;3.55;3.25;;;;;;;;;;10458298;28;20036;-75
2022/04/20 12:30:44;;;;;;;3.40;3.10;;;;;;;;;;10452157;28;20042;-75
2022/04/20 12:35:57;;;;;;;5.35;4.32;;;;;;;;;;10436681;28;20040;-75
2022/04/20 12:41:05;;;;;;;4.43;3.70;;;;;;;;;;10482704;28;20053;-75
2022/04/20 12:46:12;;;;;;;3.72;3.33;;;;;;;;;;10479363;28;20052;-77
2022/04/20 12:51:21;;;;;;;4.55;4.10;;;;;;;;;;10454378;28;20143;-75
2022/04/20 13:07:01;;;;;;;4.65;4.22;;;;;;;;;;10461407;28;20135;-76
2022/04/20 13:12:02;;;;;;;5.28;3.80;;;;;;;;;;10435838;28;20182;-76
2022/04/20 13:17:03;;;;;;;4.50;4.00;;;;;;;;;;10458138;28;20036;-73
2022/04/20 13:22:03;;;;;;;4.18;3.85;;;;;;;;;;10500364;28;20041;-75
2022/04/20 13:32:25;;;;;;;5.32;4.03;;;;;;;;;;10489448;28;20035;-78
2022/04/20 13:37:34;;;;;;;3.78;3.42;;;;;;;;;;10517094;28;20029;-77
2022/04/20 13:42:34;;;;;;;4.30;3.90;;;;;;;;;;10482712;28;20024;-76
2022/04/20 13:47:35;;;;;;;4.60;4.20;;;;;;;;;;10529741;28;20047;-76
2022/04/20 13:52:37;;;;;;;7.43;4.60;;;;;;;;;;10522504;28;20051;-78
2022/04/20 13:57:37;;;;;;;6.10;4.63;;;;;;;;;;10494773;28;20335;-75
2022/04/20 14:02:40;;;;;;;4.55;4.13;;;;;;;;;;10487737;28;20131;-76
2022/04/20 14:07:40;;;;;;;4.57;4.18;;;;;;;;;;10467115;28;20053;-72
2022/04/20 14:12:41;;;;;;;20.40;15.57;;;;;;;;;;10468727;28;20089;-72
2022/04/20 14:17:43;;;;;;;5.32;4.10;;;;;;;;;;10450580;28;20280;-71
2022/04/20 14:22:44;;;;;;;4.30;3.90;;;;;;;;;;10469050;28;20135;-69
2022/04/20 14:33:03;;;;;;;5.22;4.72;;;;;;;;;;10479219;28;20052;-69
2022/04/20 14:38:04;;;;;;;4.55;4.15;;;;;;;;;;10477315;28;20047;-70
2022/04/20 14:43:05;;;;;;;4.43;3.70;;;;;;;;;;10478955;28;20094;-73
2022/04/20 14:48:05;;;;;;;4.20;3.80;;;;;;;;;;10472028;28;20070;-69
2022/04/20 14:53:07;;;;;;;4.43;4.03;;;;;;;;;;10458320;28;20592;-72
2022/04/20 14:58:07;;;;;;;4.28;3.72;;;;;;;;;;10466007;28;20044;-72
2022/04/20 15:03:08;;;;;;;4.00;3.70;;;;;;;;;;10487798;28;20041;-71
2022/04/20 15:08:09;;;;;;;4.88;3.70;;;;;;;;;;10472898;28;20318;-70
2022/04/20 15:13:09;;;;;;;5.40;4.20;;;;;;;;;;10442337;28;20127;-71
2022/04/20 15:18:10;;;;;;;5.33;3.80;;;;;;;;;;10470729;28;20041;-74
2022/04/20 15:23:10;;;;;;;4.30;3.90;;;;;;;;;;10459249;28;20044;-70
2022/04/20 15:28:11;;;;;;;4.10;3.70;;;;;;;;;;10472363;28;20064;-71
2022/04/20 15:33:14;;;;;;;6.38;3.80;;;;;;;;;;10446781;28;20281;-70
2022/04/20 15:38:14;;;;;;;4.20;3.10;;;;;;;;;;10476662;28;20513;-71
2022/04/20 15:43:17;;;;;;;4.45;3.58;;;;;;;;;;10474193;28;20051;-76
2022/04/20 15:48:19;;;;;;;4.00;3.47;;;;;;;;;;10462310;28;20044;-76
2022/04/20 15:53:20;;;;;;;3.70;3.40;;;;;;;;;;10484711;28;20446;-76
2022/04/20 16:03:42;;;;;;;4.53;3.38;;;;;;;;;;10484061;28;20642;-76
2022/04/20 16:08:43;;;;;;;5.80;3.38;;;;;;;;;;10482114;28;20053;-75
2022/04/20 16:13:43;;;;;;;3.80;3.40;;;;;;;;;;10478706;28;20053;-76
2022/04/20 16:18:44;;;;;;;3.43;3.13;;;;;;;;;;10476007;28;20064;-77
2022/04/20 16:23:45;;;;;;;5.03;3.40;;;;;;;;;;10467265;28;20041;-78
2022/04/20 16:28:47;;;;;;;9.55;5.90;;;;;;;;;;10484782;28;20057;-78
2022/04/20 16:33:48;;;;;;;4.03;3.17;;;;;;;;;;10491408;28;20051;-79
2022/04/20 16:38:49;;;;;;;4.33;3.20;;;;;;;;;;10505163;28;20031;-78
2022/04/20 16:43:49;;;;;;;4.30;3.30;;;;;;;;;;10517967;28;20325;-78
2022/04/20 16:48:49;;;;;;;3.70;2.90;;;;;;;;;;10492502;28;20055;-77
2022/04/20 16:53:52;;;;;;;4.10;3.30;;;;;;;;;;10483527;28;20301;-77
2022/04/20 16:58:52;;;;;;;5.47;3.70;;;;;;;;;;10510498;28;20040;-78
2022/04/20 17:03:54;;;;;;;3.83;3.40;;;;;;;;;;10521820;28;20279;-77
2022/04/20 17:08:54;;;;;;;5.00;4.03;;;;;;;;;;10471778;28;20055;-77
2022/04/20 17:13:59;;;;;;;5.53;4.15;;;;;;;;;;10488043;28;20053;-79
2022/04/20 17:19:00;;;;;;;4.78;4.38;;;;;;;;;;10478834;28;20040;-81
2022/04/20 17:29:21;;;;;;;5.75;4.57;;;;;;;;;;10486583;28;20858;-77
2022/04/20 17:34:21;;;;;;;5.53;4.80;;;;;;;;;;10479549;28;20073;-75
2022/04/20 17:39:25;;;;;;;5.07;4.60;;;;;;;;;;10467361;28;21076;-77
2022/04/20 17:44:25;;;;;;;5.03;4.53;;;;;;;;;;10503006;28;20717;-78
2022/04/20 17:49:26;;;;;;;5.78;4.50;;;;;;;;;;10480705;28;20055;-78
2022/04/20 17:54:27;;;;;;;6.05;4.60;;;;;;;;;;10450076;28;20046;-78
2022/04/20 17:59:27;;;;;;;6.50;5.00;;;;;;;;;;10495643;28;20118;-78
2022/04/20 18:04:28;;;;;;;6.83;4.43;;;;;;;;;;10525480;28;20287;-79
2022/04/20 18:09:30;;;;;;;7.77;5.50;;;;;;;;;;10515956;28;20346;-77
2022/04/20 18:14:32;;;;;;;4.88;4.40;;;;;;;;;;10526673;28;20290;-78
2022/04/20 18:19:35;;;;;;;5.68;5.13;;;;;;;;;;10518125;28;20074;-78
2022/04/20 18:24:36;;;;;;;7.35;4.90;;;;;;;;;;10528843;28;20128;-76
2022/04/20 18:29:38;;;;;;;5.25;4.70;;;;;;;;;;10509996;28;20040;-78
2022/04/20 18:34:43;;;;;;;6.05;4.50;;;;;;;;;;10514826;28;20048;-77
2022/04/20 18:39:46;;;;;;;6.63;4.90;;;;;;;;;;10499161;28;20041;-77
2022/04/20 18:44:46;;;;;;;;;;;;;;;;;;10524589;28;20066;-79
2022/04/20 18:49:48;;;;;;;5.55;5.05;;;;;;;;;;10498776;28;19924;-77
2022/04/20 19:00:08;;;;;;;8.20;6.47;;;;;;;;;;10493886;28;20372;-76
2022/04/20 19:05:09;;;;;;;8.90;7.40;;;;;;;;;;10453802;28;20029;-78
2022/04/20 19:10:12;;;;;;;8.85;7.38;;;;;;;;;;10503359;28;20585;-77
2022/04/20 19:15:12;;;;;;;9.17;7.70;;;;;;;;;;10476079;28;20047;-75
2022/04/20 19:20:13;;;;;;;9.50;8.07;;;;;;;;;;10482300;28;20104;-77
2022/04/20 19:25:14;;;;;;;8.05;7.25;;;;;;;;;;10472426;28;20060;-76
2022/04/20 19:30:15;;;;;;;9.10;8.10;;;;;;;;;;10471965;28;20499;-76
2022/04/20 19:35:15;;;;;;;10.43;7.90;;;;;;;;;;10449539;28;20067;-77
2022/04/20 19:40:16;;;;;;;8.50;7.70;;;;;;;;;;10498517;28;20041;-74
2022/04/20 19:45:26;;;;;;;8.70;7.85;;;;;;;;;;10486322;28;20108;-75
2022/04/20 19:50:29;;;;;;;8.70;6.78;;;;;;;;;;10490124;28;20495;-76
2022/04/20 19:55:33;;;;;;;8.80;7.10;;;;;;;;;;10470949;28;20484;-75
2022/04/20 20:00:34;;;;;;;9.48;7.20;;;;;;;;;;10486165;28;20049;-79
2022/04/20 20:05:35;;;;;;;7.13;6.35;;;;;;;;;;10497787;28;20048;-79
2022/04/20 20:10:35;;;;;;;7.40;6.67;;;;;;;;;;10464841;28;20163;-76
2022/04/20 20:15:36;;;;;;;7.75;6.50;;;;;;;;;;10473055;28;20597;-76
2022/04/20 20:20:37;;;;;;;8.18;6.70;;;;;;;;;;10475525;28;20051;-76
2022/04/20 20:30:56;;;;;;;7.65;6.85;;;;;;;;;;10469774;28;20309;-75
2022/04/20 20:35:57;;;;;;;8.15;6.72;;;;;;;;;;10482364;28;20046;-77
2022/04/20 20:40:57;;;;;;;8.30;7.43;;;;;;;;;;10473168;28;20131;-76
2022/04/20 20:45:58;;;;;;;7.85;7.05;;;;;;;;;;10446626;28;20116;-77
2022/04/20 20:50:58;;;;;;;8.55;7.65;;;;;;;;;;10473994;28;20158;-77
2022/04/20 20:55:59;;;;;;;8.80;7.60;;;;;;;;;;10443391;28;20041;-76
2022/04/20 21:01:00;;;;;;;9.60;8.60;;;;;;;;;;10468710;28;20046;-77
2022/04/20 21:06:00;;;;;;;10.18;8.95;;;;;;;;;;10470733;28;20056;-77
2022/04/20 21:11:03;;;;;;;10.40;9.30;;;;;;;;;;10475781;28;20076;-76
2022/04/20 21:16:07;;;;;;;11.18;10.00;;;;;;;;;;10476444;28;20341;-77
2022/04/20 21:21:12;;;;;;;12.90;10.10;;;;;;;;;;10482749;28;20212;-76
2022/04/20 21:26:12;;;;;;;11.65;10.40;;;;;;;;;;10484686;28;20059;-78
2022/04/20 21:31:15;;;;;;;12.43;10.40;;;;;;;;;;10465215;28;20061;-77
2022/04/20 21:36:17;;;;;;;11.43;10.20;;;;;;;;;;10463116;28;20048;-76
2022/04/20 21:41:18;;;;;;;11.43;10.18;;;;;;;;;;10485999;28;20378;-76
2022/04/20 21:46:20;;;;;;;11.10;9.35;;;;;;;;;;10488301;28;20040;-76
2022/04/20 21:51:20;;;;;;;11.38;10.05;;;;;;;;;;10443453;28;20052;-76
2022/04/20 21:56:21;;;;;;;10.18;8.95;;;;;;;;;;10465925;28;20041;-77
2022/04/20 22:01:21;;;;;;;10.82;9.77;;;;;;;;;;10485998;28;20048;-76
2022/04/20 22:11:56;;;;;;;9.93;8.93;;;;;;;;;;10513547;28;20044;-76
2022/04/20 22:16:56;;;;;;;;;;;;;;;;;;10489278;28;20051;-76
2022/04/20 22:21:58;;;;;;;11.50;9.30;;;;;;;;;;10512764;28;19927;-77
2022/04/20 22:26:59;;;;;;;9.75;8.75;;;;;;;;;;10499498;28;20051;-77
2022/04/20 22:32:00;;;;;;;10.80;9.05;;;;;;;;;;10522737;28;20060;-75
2022/04/20 22:37:03;;;;;;;9.90;8.75;;;;;;;;;;10507285;28;20040;-75
2022/04/20 22:42:04;;;;;;;9.68;8.68;;;;;;;;;;10512952;28;20037;-77
2022/04/20 22:47:04;;;;;;;10.70;8.00;;;;;;;;;;10445219;28;20037;-79
2022/04/20 22:52:06;;;;;;;8.55;7.65;;;;;;;;;;10488531;28;20066;-76
2022/04/20 22:57:07;;;;;;;9.25;8.32;;;;;;;;;;10486261;28;20093;-76
2022/04/20 23:02:07;;;;;;;9.20;8.25;;;;;;;;;;10487903;28;20133;-77
2022/04/20 23:07:09;;;;;;;9.90;7.33;;;;;;;;;;10444814;28;20411;-77
2022/04/20 23:12:09;;;;;;;8.18;7.32;;;;;;;;;;10482558;28;20056;-75
2022/04/20 23:17:10;;;;;;;11.33;9.00;;;;;;;;;;10474608;28;20130;-76
2022/04/20 23:22:11;;;;;;;9.47;8.43;;;;;;;;;;10517898;28;20327;-75
2022/04/20 23:32:31;;;;;;;9.73;8.73;;;;;;;;;;10471767;28;20063;-76
2022/04/20 23:37:31;;;;;;;9.48;8.20;;;;;;;;;;10473362;28;20800;-75
2022/04/20 23:42:32;;;;;;;8.67;7.67;;;;;;;;;;10466882;28;20049;-77
2022/04/20 23:47:32;;;;;;;11.10;8.27;;;;;;;;;;10469499;28;20390;-76
2022/04/20 23:52:33;;;;;;;8.00;6.97;;;;;;;;;;10483930;28;20052;-76
2022/04/20 23:57:33;;;;;;;7.60;6.80;;;;;;;;;;10451247;28;20166;-76
